createdAt,value
2023-09-27T00:01:38.303Z,19.8
2023-09-27T00:04:09.093Z,19.8
2023-09-27T00:06:40.377Z,19.8
2023-09-27T00:09:10.912Z,19.8
2023-09-27T00:11:41.423Z,19.9
2023-09-27T00:14:12.205Z,19.8
2023-09-27T00:16:42.655Z,19.8
2023-09-27T00:19:13.109Z,19.9
2023-09-27T00:21:43.716Z,19.9
2023-09-27T00:24:14.464Z,19.9
2023-09-27T00:26:45.904Z,20
2023-09-27T00:29:17.211Z,20
2023-09-27T00:31:48.458Z,20.1
2023-09-27T00:34:19.593Z,20.1
2023-09-27T00:36:50.343Z,20.1
2023-09-27T00:39:21.921Z,20.1
2023-09-27T00:41:51.139Z,20.1
2023-09-27T00:44:21.790Z,20.2
2023-09-27T00:46:52.451Z,20.1
2023-09-27T00:49:23.089Z,20.2
2023-09-27T00:51:53.648Z,20.2
2023-09-27T00:54:24.744Z,20.2
2023-09-27T00:56:56.140Z,20.3
2023-09-27T00:59:26.875Z,20.2
2023-09-27T01:01:58.902Z,20.3
2023-09-27T01:04:29.833Z,20.3
2023-09-27T01:07:00.706Z,20.2
2023-09-27T01:09:31.484Z,20.2
2023-09-27T01:12:02.568Z,20.2
2023-09-27T01:14:33.189Z,20.2
2023-09-27T01:17:04.745Z,20.2
2023-09-27T01:19:35.601Z,20.2
2023-09-27T01:22:05.861Z,20.2
2023-09-27T01:24:37.772Z,20.3
2023-09-27T01:27:07.730Z,20.4
2023-09-27T01:29:38.698Z,20.4
2023-09-27T01:32:09.332Z,20.5
2023-09-27T01:34:40.231Z,20.5
2023-09-27T01:37:09.130Z,20.5
2023-09-27T01:39:39.670Z,20.6
2023-09-27T01:42:10.140Z,20.7
2023-09-27T01:44:40.999Z,20.7
2023-09-27T01:47:12.103Z,20.7
2023-09-27T01:49:45.645Z,20.7
2023-09-27T01:52:14.932Z,20.9
2023-09-27T01:54:45.823Z,20.9
2023-09-27T01:57:17.076Z,20.9
2023-09-27T01:59:46.093Z,20.9
2023-09-27T02:02:17.111Z,21
2023-09-27T02:04:48.038Z,21
2023-09-27T02:07:18.943Z,21
2023-09-27T02:09:49.961Z,21
2023-09-27T02:12:21.176Z,20.9
2023-09-27T02:14:50.201Z,20.9
2023-09-27T02:17:20.624Z,20.9
2023-09-27T02:19:52.800Z,21
2023-09-27T02:22:23.885Z,21
2023-09-27T02:24:54.630Z,21
2023-09-27T02:27:25.528Z,21.1
2023-09-27T02:29:56.116Z,21
2023-09-27T02:32:26.726Z,21.1
2023-09-27T02:34:57.195Z,21
2023-09-27T02:37:27.481Z,20.9
2023-09-27T02:39:57.922Z,20.6
2023-09-27T02:42:28.856Z,20.5
2023-09-27T02:45:00.171Z,20.6
2023-09-27T02:47:32.087Z,20.6
2023-09-27T02:50:02.303Z,20.5
2023-09-27T02:52:33.451Z,20.6
2023-09-27T02:55:04.348Z,20.7
2023-09-27T02:57:33.840Z,20.6
2023-09-27T03:00:04.366Z,20.6
2023-09-27T03:02:34.980Z,20.6
2023-09-27T03:05:05.555Z,20.6
2023-09-27T03:07:36.699Z,20.7
2023-09-27T03:10:07.201Z,20.7
2023-09-27T03:12:37.669Z,20.7
2023-09-27T03:15:09.449Z,20.6
2023-09-27T03:17:39.733Z,20.7
2023-09-27T03:20:11.345Z,20.6
2023-09-27T03:22:42.468Z,20.5
2023-09-27T03:25:13.607Z,20.4
2023-09-27T03:27:44.947Z,20.4
2023-09-27T03:30:15.569Z,20.3
2023-09-27T03:32:46.077Z,20.2
2023-09-27T03:35:17.242Z,20.3
2023-09-27T03:37:47.928Z,20.3
2023-09-27T03:40:17.409Z,20.3
2023-09-27T03:42:48.206Z,20.3
2023-09-27T03:45:18.681Z,20.2
2023-09-27T03:47:49.829Z,20.2
2023-09-27T03:50:20.812Z,20.1
2023-09-27T03:52:51.245Z,20.2
2023-09-27T03:55:21.808Z,20.2
2023-09-27T03:57:52.633Z,20.2
2023-09-27T04:00:24.843Z,20.2
2023-09-27T04:02:54.805Z,20.1
2023-09-27T04:05:25.068Z,19.9
2023-09-27T04:07:55.391Z,19.9
2023-09-27T04:10:24.282Z,19.8
2023-09-27T04:12:54.743Z,19.8
2023-09-27T04:15:24.071Z,19.7
2023-09-27T04:17:54.576Z,19.7
2023-09-27T04:20:23.762Z,19.7
2023-09-27T04:22:54.499Z,19.6
2023-09-27T04:25:23.867Z,19.6
2023-09-27T04:27:55.422Z,19.4
2023-09-27T04:30:24.318Z,19.2
2023-09-27T04:32:55.310Z,19.3
2023-09-27T04:35:26.151Z,19.4
2023-09-27T04:37:56.779Z,19.4
2023-09-27T04:40:27.614Z,19.5
2023-09-27T04:42:59.516Z,19.5
2023-09-27T04:45:30.183Z,19.5
2023-09-27T04:48:00.507Z,19.5
2023-09-27T04:50:31.505Z,19.5
2023-09-27T04:53:01.914Z,19.5
2023-09-27T04:55:32.470Z,19.5
2023-09-27T04:58:02.850Z,19.5
2023-09-27T05:00:31.652Z,19.6
2023-09-27T05:03:02.004Z,19.6
2023-09-27T05:05:32.978Z,19.7
2023-09-27T05:08:03.353Z,19.7
2023-09-27T05:10:33.975Z,19.8
2023-09-27T05:13:04.591Z,19.7
2023-09-27T05:15:35.306Z,19.9
2023-09-27T05:18:06.389Z,19.9
2023-09-27T05:20:36.737Z,19.9
2023-09-27T05:23:07.397Z,19.9
2023-09-27T05:25:39.200Z,19.9
2023-09-27T05:28:10.135Z,19.9
2023-09-27T05:30:40.735Z,20.1
2023-09-27T05:33:11.294Z,20
2023-09-27T05:35:40.205Z,20.1
2023-09-27T05:38:11.416Z,20.2
2023-09-27T05:40:41.973Z,20.3
2023-09-27T05:43:13.272Z,20.4
2023-09-27T05:45:44.133Z,20.4
2023-09-27T05:48:17.524Z,20.5
2023-09-27T05:50:48.106Z,20.6
2023-09-27T05:53:18.723Z,20.6
2023-09-27T05:55:49.493Z,20.7
2023-09-27T05:58:20.004Z,20.9
2023-09-27T06:00:50.234Z,21
2023-09-27T06:03:21.269Z,21
2023-09-27T06:05:51.685Z,21.1
2023-09-27T06:08:22.210Z,21.2
2023-09-27T06:10:53.047Z,21.2
2023-09-27T06:13:24.419Z,21.3
2023-09-27T06:15:55.434Z,21.4
2023-09-27T06:18:26.464Z,21.4
2023-09-27T06:20:56.991Z,21.4
2023-09-27T06:23:27.622Z,21.5
2023-09-27T06:25:58.061Z,21.5
2023-09-27T06:28:28.573Z,21.6
2023-09-27T06:30:59.405Z,21.7
2023-09-27T06:33:29.802Z,21.8
2023-09-27T06:36:00.158Z,21.9
2023-09-27T06:38:30.889Z,22
2023-09-27T06:41:04.031Z,22.1
2023-09-27T06:43:34.839Z,22.2
2023-09-27T06:46:05.816Z,22.3
2023-09-27T06:48:36.329Z,22.4
2023-09-27T06:51:06.626Z,22.5
2023-09-27T06:53:37.061Z,22.6
2023-09-27T06:56:07.438Z,22.7
2023-09-27T06:58:38.560Z,22.7
2023-09-27T07:01:09.773Z,22.9
2023-09-27T07:03:40.883Z,22.9
2023-09-27T07:06:11.703Z,22.9
2023-09-27T07:08:42.634Z,22.9
2023-09-27T07:11:12.955Z,22.9
2023-09-27T07:13:43.850Z,23
2023-09-27T07:16:14.721Z,23
2023-09-27T07:18:45.552Z,23.1
2023-09-27T07:21:16.248Z,23.3
2023-09-27T07:23:46.458Z,23.3
2023-09-27T07:26:17.210Z,23.4
2023-09-27T07:28:47.953Z,23.5
2023-09-27T07:31:19.170Z,23.5
2023-09-27T07:33:49.426Z,23.6
2023-09-27T07:36:19.923Z,23.8
2023-09-27T07:38:50.528Z,23.9
2023-09-27T07:41:22.186Z,23.9
2023-09-27T07:43:53.666Z,23.9
2023-09-27T07:46:24.134Z,24
2023-09-27T07:48:56.083Z,24
2023-09-27T07:51:27.055Z,24.2
2023-09-27T07:53:57.745Z,24.4
2023-09-27T07:56:28.461Z,24.5
2023-09-27T07:58:59.579Z,24.5
2023-09-27T08:01:30.328Z,24.5
2023-09-27T08:04:00.668Z,24.6
2023-09-27T08:06:33.211Z,24.6
2023-09-27T08:09:03.804Z,24.7
2023-09-27T08:11:35.716Z,24.8
2023-09-27T08:14:05.777Z,24.7
2023-09-27T08:16:36.572Z,24.6
2023-09-27T08:19:07.712Z,24.8
2023-09-27T08:21:38.099Z,24.8
2023-09-27T08:24:08.784Z,24.7
2023-09-27T08:26:40.006Z,24.7
2023-09-27T08:29:10.461Z,24.7
2023-09-27T08:31:41.437Z,24.9
2023-09-27T08:34:12.202Z,25
2023-09-27T08:36:43.198Z,25.2
2023-09-27T08:39:14.116Z,25.1
2023-09-27T08:41:45.116Z,25.2
2023-09-27T08:44:16.260Z,25.4
2023-09-27T08:46:47.265Z,25.3
2023-09-27T08:49:18.476Z,25.5
2023-09-27T08:51:49.111Z,25.6
2023-09-27T08:54:19.654Z,25.6
2023-09-27T08:56:50.272Z,25.6
2023-09-27T08:59:21.085Z,25.7
2023-09-27T09:01:51.532Z,25.6
2023-09-27T09:04:22.451Z,25.8
2023-09-27T09:06:53.020Z,25.9
2023-09-27T09:09:21.986Z,25.9
2023-09-27T09:11:52.623Z,26
2023-09-27T09:14:23.410Z,26.1
2023-09-27T09:16:53.880Z,26.2
2023-09-27T09:21:55.974Z,26.3
2023-09-27T09:24:27.154Z,26.4
2023-09-27T09:26:57.893Z,26.3
2023-09-27T09:29:29.242Z,26.2
2023-09-27T09:31:59.488Z,26.4
2023-09-27T09:34:30.633Z,26.5
2023-09-27T09:37:02.235Z,26.5
2023-09-27T09:39:33.544Z,26.5
2023-09-27T09:42:03.827Z,26.5
2023-09-27T09:44:38.141Z,26.4
2023-09-27T09:47:09.539Z,26.5
2023-09-27T09:49:40.580Z,26.6
2023-09-27T09:52:11.487Z,26.8
2023-09-27T09:54:42.483Z,26.6
2023-09-27T09:57:19.078Z,26.3
2023-09-27T09:59:44.152Z,26.5
2023-09-27T10:02:14.334Z,26.6
2023-09-27T10:04:45.104Z,26.6
2023-09-27T10:07:15.696Z,26.6
2023-09-27T10:09:46.669Z,26.6
2023-09-27T10:12:17.570Z,26.5
2023-09-27T10:14:48.483Z,26.7
2023-09-27T10:17:19.122Z,26.8
2023-09-27T10:19:49.691Z,26.9
2023-09-27T10:22:20.919Z,26.9
2023-09-27T10:24:51.524Z,26.9
2023-09-27T10:27:22.530Z,27
2023-09-27T10:29:53.139Z,27.1
2023-09-27T10:32:23.945Z,27.1
2023-09-27T10:34:54.126Z,27.3
2023-09-27T10:37:24.315Z,27.2
2023-09-27T10:39:55.473Z,27.4
2023-09-27T10:42:26.119Z,27.4
2023-09-27T10:44:57.160Z,27.4
2023-09-27T10:47:28.438Z,27.5
2023-09-27T10:49:59.038Z,27.6
2023-09-27T10:52:29.709Z,27.5
2023-09-27T10:55:00.444Z,27.4
2023-09-27T10:57:35.264Z,27.5
2023-09-27T11:00:06.056Z,27.4
2023-09-27T11:02:37.162Z,27.6
2023-09-27T11:05:08.267Z,27.6
2023-09-27T11:07:38.904Z,27.6
2023-09-27T11:10:09.605Z,27.6
2023-09-27T11:12:44.347Z,27.6
2023-09-27T11:15:15.061Z,27.6
2023-09-27T11:17:45.743Z,27.8
2023-09-27T11:20:16.248Z,27.8
2023-09-27T11:22:47.362Z,27.7
2023-09-27T11:25:21.341Z,27.8
2023-09-27T11:27:51.546Z,28
2023-09-27T11:30:20.516Z,27.9
2023-09-27T11:32:51.858Z,28
2023-09-27T11:35:21.333Z,27.9
2023-09-27T11:37:52.174Z,27.7
2023-09-27T11:40:23.031Z,27.7
2023-09-27T11:42:53.588Z,27.8
2023-09-27T11:45:24.494Z,27.9
2023-09-27T11:47:55.385Z,27.9
2023-09-27T11:50:26.157Z,27.8
2023-09-27T11:52:56.466Z,27.8
2023-09-27T11:55:27.169Z,28
2023-09-27T11:57:55.868Z,27.8
2023-09-27T12:00:24.741Z,27.8
2023-09-27T12:02:57.579Z,27.8
2023-09-27T12:05:25.745Z,27.7
2023-09-27T12:07:55.621Z,27.8
2023-09-27T12:10:26.557Z,28
2023-09-27T12:12:57.382Z,27.9
2023-09-27T12:15:28.464Z,27.9
2023-09-27T12:18:02.257Z,27.7
2023-09-27T12:23:03.904Z,27.7
2023-09-27T12:25:35.031Z,27.8
2023-09-27T12:28:05.877Z,27.9
2023-09-27T12:30:35.037Z,27.9
2023-09-27T12:33:06.823Z,28
2023-09-27T12:35:37.945Z,28.1
2023-09-27T12:38:12.344Z,28.2
2023-09-27T12:40:43.323Z,28.1
2023-09-27T12:43:14.644Z,28.2
2023-09-27T12:45:48.800Z,28.2
2023-09-27T12:48:19.569Z,28.3
2023-09-27T12:50:50.538Z,28.4
2023-09-27T12:53:21.462Z,28.5
2023-09-27T12:55:52.357Z,28.5
2023-09-27T13:01:02.094Z,28.7
2023-09-27T13:03:33.475Z,28.9
2023-09-27T13:06:04.100Z,29
2023-09-27T13:08:35.124Z,29.1
2023-09-27T13:11:06.088Z,29.2
2023-09-27T13:13:38.124Z,29.2
2023-09-27T13:16:09.575Z,29.1
2023-09-27T13:18:40.680Z,29.1
2023-09-27T13:21:11.613Z,29.1
2023-09-27T13:23:42.024Z,28.9
2023-09-27T13:26:12.903Z,29
2023-09-27T13:28:43.808Z,29.1
2023-09-27T13:31:14.630Z,28.7
2023-09-27T13:33:48.979Z,28.5
2023-09-27T13:36:16.804Z,28.5
2023-09-27T13:38:48.051Z,28.6
2023-09-27T13:41:19.013Z,28.6
2023-09-27T13:43:49.808Z,28.6
2023-09-27T13:46:21.056Z,28.4
2023-09-27T13:48:52.007Z,28.2
2023-09-27T13:51:22.637Z,28.1
2023-09-27T13:53:53.952Z,28
2023-09-27T13:56:24.586Z,28.1
2023-09-27T13:58:55.735Z,28.1
2023-09-27T14:01:26.425Z,28.1
2023-09-27T14:03:57.583Z,28
2023-09-27T14:06:28.964Z,27.9
2023-09-27T14:08:59.979Z,28
2023-09-27T14:11:30.658Z,27.9
2023-09-27T14:14:00.771Z,27.8
2023-09-27T14:16:31.536Z,27.7
2023-09-27T14:19:02.451Z,27.6
2023-09-27T14:21:33.400Z,27.7
2023-09-27T14:24:04.368Z,27.7
2023-09-27T14:26:34.823Z,27.6
2023-09-27T14:29:03.499Z,27.5
2023-09-27T14:31:34.541Z,27.6
2023-09-27T14:34:05.755Z,27.5
2023-09-27T14:36:36.557Z,27.5
2023-09-27T14:39:07.623Z,27.4
2023-09-27T14:41:38.819Z,27.5
2023-09-27T14:44:09.774Z,27.3
2023-09-27T14:46:40.863Z,27.4
2023-09-27T14:49:11.550Z,27.4
2023-09-27T14:51:42.781Z,27.3
2023-09-27T14:54:13.389Z,27.2
2023-09-27T14:56:42.415Z,27.2
2023-09-27T14:59:13.016Z,27
2023-09-27T15:01:44.371Z,27.1
2023-09-27T15:04:15.340Z,27.1
2023-09-27T15:06:46.341Z,26.8
2023-09-27T15:09:17.261Z,26.8
2023-09-27T15:11:48.206Z,26.7
2023-09-27T15:14:19.081Z,26.8
2023-09-27T15:16:48.244Z,26.7
2023-09-27T15:19:18.943Z,26.8
2023-09-27T15:21:49.777Z,26.8
2023-09-27T15:24:18.722Z,26.7
2023-09-27T15:26:47.714Z,26.6
2023-09-27T15:29:18.813Z,26.5
2023-09-27T15:31:50.779Z,26.5
2023-09-27T15:34:21.904Z,26.4
2023-09-27T15:36:52.980Z,26.4
2023-09-27T15:39:23.948Z,26.4
2023-09-27T15:41:55.847Z,26.3
2023-09-27T15:44:26.682Z,26.3
2023-09-27T15:46:57.674Z,26.3
2023-09-27T15:49:28.601Z,26.3
2023-09-27T15:51:59.479Z,26.2
2023-09-27T15:54:30.408Z,26
2023-09-27T15:57:01.407Z,26.1
2023-09-27T15:59:32.168Z,26.1
2023-09-27T16:02:03.455Z,26
2023-09-27T16:04:42.076Z,26
2023-09-27T16:07:04.851Z,26
2023-09-27T16:09:35.724Z,25.9
2023-09-27T16:12:04.521Z,25.8
2023-09-27T16:14:34.916Z,25.7
2023-09-27T16:17:05.872Z,25.7
2023-09-27T16:19:36.163Z,25.6
2023-09-27T16:22:06.527Z,25.6
2023-09-27T16:24:37.154Z,25.6
2023-09-27T16:27:07.493Z,25.5
2023-09-27T16:29:37.751Z,25.5
2023-09-27T16:32:08.150Z,25.4
2023-09-27T16:34:38.604Z,25.4
2023-09-27T16:37:09.046Z,25.3
2023-09-27T16:39:39.559Z,25.3
2023-09-27T16:42:10.038Z,25.2
2023-09-27T16:44:40.098Z,25.1
2023-09-27T16:47:10.531Z,25
2023-09-27T16:49:41.105Z,25
2023-09-27T16:52:11.221Z,24.8
2023-09-27T16:54:41.367Z,24.7
2023-09-27T16:57:11.559Z,24.7
2023-09-27T16:59:42.079Z,24.7
2023-09-27T17:02:13.490Z,24.6
2023-09-27T17:04:44.241Z,24.6
2023-09-27T17:07:14.895Z,24.5
2023-09-27T17:09:43.523Z,24.4
2023-09-27T17:12:13.773Z,24.4
2023-09-27T17:14:44.577Z,24.3
2023-09-27T17:17:14.810Z,24.2
2023-09-27T17:19:45.200Z,24.1
2023-09-27T17:22:14.293Z,24
2023-09-27T17:24:45.114Z,24
2023-09-27T17:27:16.435Z,24
2023-09-27T17:29:46.627Z,23.9
2023-09-27T17:32:16.642Z,23.9
2023-09-27T17:34:47.161Z,23.7
2023-09-27T17:37:17.462Z,23.7
2023-09-27T17:39:48.295Z,23.7
2023-09-27T17:42:17.280Z,23.6
2023-09-27T17:44:49.019Z,23.5
2023-09-27T17:47:18.237Z,23.4
2023-09-27T17:49:49.603Z,23.3
2023-09-27T17:52:19.580Z,23.2
2023-09-27T17:54:50.776Z,23.1
2023-09-27T17:57:21.918Z,23.2
2023-09-27T17:59:52.537Z,23.1
2023-09-27T18:02:26.977Z,23
2023-09-27T18:04:56.903Z,23
2023-09-27T18:07:27.291Z,22.8
2023-09-27T18:09:57.945Z,22.7
2023-09-27T18:12:28.767Z,22.7
2023-09-27T18:15:00.358Z,22.7
2023-09-27T18:17:29.605Z,22.6
2023-09-27T18:20:00.857Z,22.6
2023-09-27T18:22:29.440Z,22.5
2023-09-27T18:25:00.163Z,22.5
2023-09-27T18:27:30.677Z,22.4
2023-09-27T18:30:02.459Z,22.3
2023-09-27T18:32:30.475Z,22.4
2023-09-27T18:35:00.680Z,22.3
2023-09-27T18:37:31.990Z,22.3
2023-09-27T18:40:02.259Z,22.2
2023-09-27T18:42:32.429Z,22.1
2023-09-27T18:45:03.301Z,22
2023-09-27T18:47:34.249Z,22
2023-09-27T18:50:04.618Z,22
2023-09-27T18:52:34.658Z,21.9
2023-09-27T18:55:03.504Z,21.8
2023-09-27T18:57:32.223Z,21.7
2023-09-27T19:00:03.397Z,21.7
2023-09-27T19:02:34.242Z,21.7
2023-09-27T19:05:04.757Z,21.7
2023-09-27T19:07:35.520Z,21.6
2023-09-27T19:10:05.840Z,21.5
2023-09-27T19:12:36.029Z,21.5
2023-09-27T19:15:06.995Z,21.5
2023-09-27T19:17:37.313Z,21.4
2023-09-27T19:20:06.294Z,21.4
2023-09-27T19:22:35.005Z,21.3
2023-09-27T19:25:04.862Z,21.3
2023-09-27T19:27:35.648Z,21.1
2023-09-27T19:30:06.541Z,21.2
2023-09-27T19:32:36.770Z,21.1
2023-09-27T19:35:07.673Z,21.1
2023-09-27T19:37:38.133Z,21
2023-09-27T19:40:08.580Z,21
2023-09-27T19:42:39.684Z,21
2023-09-27T19:45:10.543Z,20.9
2023-09-27T19:47:41.083Z,21
2023-09-27T19:50:12.134Z,20.9
2023-09-27T19:52:43.098Z,20.9
2023-09-27T19:55:13.277Z,20.8
2023-09-27T19:57:44.048Z,20.8
2023-09-27T20:00:17.305Z,20.7
2023-09-27T20:02:45.852Z,20.6
2023-09-27T20:05:17.088Z,20.6
2023-09-27T20:07:47.961Z,20.6
2023-09-27T20:10:19.216Z,20.5
2023-09-27T20:12:49.415Z,20.5
2023-09-27T20:15:20.282Z,20.5
2023-09-27T20:17:51.298Z,20.4
2023-09-27T20:20:22.638Z,20.4
2023-09-27T20:22:53.618Z,20.4
2023-09-27T20:25:25.277Z,20.2
2023-09-27T20:27:56.728Z,20.3
2023-09-27T20:30:27.537Z,20
2023-09-27T20:32:56.241Z,20.1
2023-09-27T20:35:26.985Z,20.1
2023-09-27T20:37:58.713Z,20
2023-09-27T20:40:29.492Z,19.9
2023-09-27T20:42:59.872Z,20
2023-09-27T20:45:30.598Z,19.9
2023-09-27T20:47:59.390Z,19.8
2023-09-27T20:50:30.294Z,19.8
2023-09-27T20:53:01.131Z,19.7
2023-09-27T20:55:32.225Z,19.8
2023-09-27T20:58:03.178Z,19.8
2023-09-27T21:00:34.030Z,19.7
2023-09-27T21:03:04.571Z,19.7
2023-09-27T21:05:34.856Z,19.7
2023-09-27T21:08:04.845Z,19.6
2023-09-27T21:10:35.071Z,19.5
2023-09-27T21:13:05.369Z,19.5
2023-09-27T21:15:36.922Z,19.5
2023-09-27T21:18:07.108Z,19.4
2023-09-27T21:20:38.146Z,19.4
2023-09-27T21:23:08.982Z,19.4
2023-09-27T21:25:39.871Z,19.3
2023-09-27T21:28:10.642Z,19.4
2023-09-27T21:30:41.316Z,19.3
2023-09-27T21:33:12.354Z,19.2
2023-09-27T21:35:42.893Z,19.2
2023-09-27T21:38:14.290Z,19.1
2023-09-27T21:40:45.396Z,19
2023-09-27T21:43:16.077Z,19.1
2023-09-27T21:45:47.725Z,19.1
2023-09-27T21:48:17.912Z,19.1
2023-09-27T21:50:48.875Z,19
2023-09-27T21:53:19.847Z,19.1
2023-09-27T21:55:48.896Z,19.1
2023-09-27T21:58:18.206Z,19.1
2023-09-27T22:00:49.179Z,18.9
2023-09-27T22:03:19.892Z,19
2023-09-27T22:05:50.777Z,18.9
2023-09-27T22:08:21.980Z,18.9
2023-09-27T22:10:53.047Z,18.9
2023-09-27T22:13:24.633Z,18.9
2023-09-27T22:15:55.875Z,18.8
2023-09-27T22:18:24.460Z,18.7
2023-09-27T22:20:55.479Z,18.7
2023-09-27T22:23:26.414Z,18.7
2023-09-27T22:25:55.669Z,18.7
2023-09-27T22:28:26.592Z,18.7
2023-09-27T22:30:57.202Z,18.7
2023-09-27T22:33:25.986Z,18.7
2023-09-27T22:35:56.757Z,18.6
2023-09-27T22:38:27.711Z,18.6
2023-09-27T22:40:58.062Z,18.6
2023-09-27T22:43:29.120Z,18.5
2023-09-27T22:45:59.637Z,18.5
2023-09-27T22:48:28.589Z,18.5
2023-09-27T22:50:59.825Z,18.5
2023-09-27T22:53:30.221Z,18.5
2023-09-27T22:56:01.314Z,18.4
2023-09-27T22:58:32.219Z,18.4
2023-09-27T23:01:02.974Z,18.4
2023-09-27T23:03:34.028Z,18.4
2023-09-27T23:06:05.322Z,18.3
2023-09-27T23:08:36.427Z,18.3
2023-09-27T23:11:07.964Z,18.3
2023-09-27T23:13:38.335Z,18.3
2023-09-27T23:16:09.544Z,18.3
2023-09-27T23:18:38.506Z,18.3
2023-09-27T23:21:08.898Z,18.2
2023-09-27T23:23:39.863Z,18.2
2023-09-27T23:26:08.943Z,18.1
2023-09-27T23:28:40.077Z,18.1
2023-09-27T23:31:10.744Z,18.1
2023-09-27T23:33:41.129Z,18.1
2023-09-27T23:36:11.538Z,18
2023-09-27T23:38:42.072Z,18
2023-09-27T23:41:13.470Z,18
2023-09-27T23:43:44.320Z,18
2023-09-27T23:46:15.778Z,17.9
2023-09-27T23:48:47.211Z,18
2023-09-27T23:51:17.560Z,17.9
2023-09-27T23:53:47.986Z,17.9
2023-09-27T23:56:18.789Z,17.8
2023-09-27T23:58:47.934Z,17.9
